Time;durP1;ratioP1;P1;durP2;ratioP2;P2;SDS_P1;SDS_P2;PMS_P1;PMS_P2;Temp;Humidity;BMP_temperature;BMP_pressure;BME280_temperature;BME280_humidity;BME280_pressure;Samples;Min_cycle;Max_cycle;Signal;HPM_P1;HPM_P2
2022/05/28 00:00:10;;;;;;;29.50;6.05;;;;;;;9.14;74.56;102092.97;4936382;29;20070;-48
2022/05/28 00:02:36;;;;;;;26.58;6.63;;;;;;;9.17;74.80;102085.41;4937043;29;20053;-48
2022/05/28 00:05:01;;;;;;;24.05;6.18;;;;;;;9.22;74.53;102081.41;4937165;29;20027;-49
2022/05/28 00:07:27;;;;;;;29.50;6.00;;;;;;;9.26;74.64;102076.41;4936226;29;20028;-50
2022/05/28 00:09:52;;;;;;;39.72;7.10;;;;;;;9.25;74.65;102077.25;4936992;29;20035;-46
2022/05/28 00:12:17;;;;;;;29.15;6.55;;;;;;;9.25;74.50;102074.66;4936987;29;20138;-46
2022/05/28 00:14:42;;;;;;;33.15;7.43;;;;;;;9.28;74.36;102064.53;4936161;29;20122;-49
2022/05/28 00:17:07;;;;;;;39.80;6.97;;;;;;;9.32;74.46;102061.31;4936715;29;20043;-49
2022/05/28 00:19:33;;;;;;;34.28;7.35;;;;;;;9.37;74.54;102065.03;4935954;29;20086;-46
2022/05/28 00:21:58;;;;;;;21.73;6.13;;;;;;;9.38;74.36;102065.09;4936564;29;20039;-45
2022/05/28 00:24:23;;;;;;;26.42;6.90;;;;;;;9.37;74.26;102063.34;4936917;29;20055;-47
2022/05/28 00:26:49;;;;;;;28.08;7.38;;;;;;;9.38;74.19;102067.69;4935659;29;20035;-50
2022/05/28 00:29:14;;;;;;;34.50;7.00;;;;;;;9.37;74.35;102063.34;4936578;29;20035;-47
2022/05/28 00:31:39;;;;;;;35.42;6.72;;;;;;;9.36;74.54;102060.69;4936599;29;20023;-50
2022/05/28 00:34:05;;;;;;;33.95;7.63;;;;;;;9.35;74.36;102058.94;4935659;29;20509;-48
2022/05/28 00:36:31;;;;;;;24.02;6.82;;;;;;;9.33;74.58;102055.38;4936582;29;20464;-47
2022/05/28 00:38:56;;;;;;;31.52;7.22;;;;;;;9.33;74.74;102055.38;4936449;29;20035;-49
2022/05/28 00:41:22;;;;;;;31.67;9.00;;;;;;;9.38;74.64;102056.50;4935445;29;20047;-50
2022/05/28 00:43:47;;;;;;;22.95;6.22;;;;;;;9.38;74.44;102059.09;4936487;29;20382;-49
2022/05/28 00:46:18;;;;;;;41.10;8.48;;;;;;;9.38;74.53;102059.09;4936241;29;20047;-47
2022/05/28 00:48:47;;;;;;;28.52;7.55;;;;;;;9.36;74.93;102059.00;4935725;29;20122;-46
2022/05/28 00:51:20;;;;;;;36.78;7.00;;;;;;;9.34;75.03;102047.75;4935951;29;20028;-48
2022/05/28 00:53:45;;;;;;;34.55;7.88;;;;;;;9.34;75.18;102052.88;4936712;29;20042;-47
2022/05/28 00:56:11;;;;;;;28.92;7.65;;;;;;;9.35;75.33;102051.22;4935529;29;20031;-49
2022/05/28 00:58:37;;;;;;;29.25;7.47;;;;;;;9.35;75.45;102040.94;4936221;29;20379;-49
2022/05/28 01:01:05;;;;;;;37.67;7.40;;;;;;;9.34;75.51;102046.88;4935872;29;20027;-46
2022/05/28 01:03:45;;;;;;;30.73;6.78;;;;;;;9.31;75.76;102051.81;4935415;29;20028;-48
2022/05/28 01:06:21;;;;;;;35.38;7.80;;;;;;;9.28;75.78;102049.09;4936028;29;20123;-46
2022/05/28 01:08:56;;;;;;;29.17;7.38;;;;;;;9.23;75.93;102046.25;4935463;29;20035;-47
2022/05/28 01:11:45;;;;;;;36.78;7.85;;;;;;;9.17;75.86;102046.81;4935949;29;20042;-49
2022/05/28 01:14:58;;;;;;;42.88;8.23;;;;;;;9.13;76.39;102044.91;4935698;29;20023;-50
2022/05/28 01:17:38;;;;;;;36.70;7.72;;;;;;;9.09;76.70;102039.47;4935066;29;20036;-49
2022/05/28 01:20:26;;;;;;;38.58;9.35;;;;;;;9.05;77.32;102041.00;4935490;29;20496;-49
2022/05/28 01:23:28;;;;;;;36.45;8.00;;;;;;;9.03;76.90;102033.19;4935246;29;20044;-50
2022/05/28 01:26:33;;;;;;;34.35;7.45;;;;;;;8.98;76.85;102036.34;4936025;29;20035;-48
2022/05/28 01:29:08;;;;;;;36.22;7.90;;;;;;;8.93;77.80;102033.50;4935972;29;20067;-47
2022/05/28 01:31:34;;;;;;;38.47;8.95;;;;;;;8.87;78.26;102033.16;4935268;29;20024;-49
2022/05/28 01:34:03;;;;;;;35.13;7.90;;;;;;;8.84;78.59;102039.00;4935747;29;20028;-47
2022/05/28 01:36:30;;;;;;;36.80;8.30;;;;;;;8.80;78.57;102031.06;4935576;29;20464;-49
2022/05/28 01:38:56;;;;;;;31.50;8.32;;;;;;;8.76;78.86;102040.28;4933895;29;20024;-45
2022/05/28 01:41:23;;;;;;;34.75;9.15;;;;;;;8.74;79.29;102039.31;4935317;29;20027;-47
2022/05/28 01:43:50;;;;;;;34.95;7.95;;;;;;;8.70;79.55;102039.94;4935698;29;20034;-45
2022/05/28 01:46:18;;;;;;;32.35;8.27;;;;;;;8.69;79.97;102033.91;4935532;29;20491;-49
2022/05/28 01:48:45;;;;;;;38.80;8.32;;;;;;;8.66;79.90;102032.84;4935581;29;20391;-46
2022/05/28 01:51:13;;;;;;;40.30;8.63;;;;;;;8.64;79.81;102044.75;4934744;29;20036;-49
2022/05/28 01:56:24;;;;;;;33.95;9.15;;;;;;;8.56;80.26;102046.88;4935915;29;20051;-47
2022/05/28 01:58:50;;;;;;;34.35;8.07;;;;;;;8.54;80.61;102036.47;4934919;29;20020;-49
2022/05/28 02:01:16;;;;;;;42.60;8.68;;;;;;;8.47;80.78;102047.22;4935286;29;20044;-48
2022/05/28 02:03:44;;;;;;;30.67;8.10;;;;;;;8.46;81.05;102037.75;4935414;29;20034;-50
2022/05/28 02:06:09;;;;;;;38.78;9.55;;;;;;;8.45;81.54;102038.50;4934469;29;20120;-48
2022/05/28 02:08:40;;;;;;;32.72;8.18;;;;;;;8.46;81.93;102040.31;4935767;29;20028;-47
2022/05/28 02:11:13;;;;;;;34.15;8.45;;;;;;;8.49;81.84;102040.47;4935351;29;20032;-49
2022/05/28 02:13:48;;;;;;;37.88;8.57;;;;;;;8.51;81.63;102038.91;4934897;29;20031;-45
2022/05/28 02:16:20;;;;;;;39.97;8.52;;;;;;;8.50;82.23;102039.69;4935119;29;20399;-50
2022/05/28 02:18:59;;;;;;;32.45;8.43;;;;;;;8.51;82.00;102033.75;4935127;29;20110;-50
2022/05/28 02:21:34;;;;;;;49.92;9.57;;;;;;;8.49;82.58;102037.91;4934934;29;20064;-48
2022/05/28 02:24:11;;;;;;;36.47;8.35;;;;;;;8.50;82.68;102037.13;4935173;29;20487;-48
2022/05/28 02:26:52;;;;;;;35.08;7.60;;;;;;;8.48;82.72;102028.44;4934717;29;20489;-47
2022/05/28 02:29:18;;;;;;;40.63;9.65;;;;;;;8.46;83.23;102032.59;4934983;29;20486;-48
2022/05/28 02:31:45;;;;;;;44.38;8.40;;;;;;;8.44;83.51;102029.00;4935431;29;20039;-48
2022/05/28 02:34:12;;;;;;;36.93;8.80;;;;;;;8.44;83.79;102026.44;4934468;29;20118;-48
2022/05/28 02:36:38;;;;;;;39.20;9.43;;;;;;;8.39;83.70;102028.78;4935337;29;20016;-49
2022/05/28 02:39:04;;;;;;;32.10;8.25;;;;;;;8.38;83.81;102031.25;4934958;29;20032;-49
2022/05/28 02:41:29;;;;;;;33.67;9.80;;;;;;;8.32;84.27;102025.75;4934341;29;20032;-49
2022/05/28 02:43:54;;;;;;;37.13;9.90;;;;;;;8.28;84.46;102016.13;4935489;29;20032;-46
2022/05/28 02:46:20;;;;;;;39.83;8.65;;;;;;;8.26;84.68;102022.84;4935075;29;20492;-48
2022/05/28 02:48:46;;;;;;;34.30;8.80;;;;;;;8.21;85.11;102013.19;4934690;29;20032;-50
2022/05/28 02:51:17;;;;;;;34.58;8.85;;;;;;;8.20;85.67;102008.84;4938330;29;20032;-47
2022/05/28 02:53:43;;;;;;;40.95;9.27;;;;;;;8.16;85.56;102004.31;4938599;29;20028;-46
2022/05/28 02:56:09;;;;;;;39.25;9.15;;;;;;;8.17;85.91;102006.09;4937400;29;20031;-49
2022/05/28 02:58:34;;;;;;;33.20;10.32;;;;;;;8.10;86.11;102003.97;4938571;29;20026;-46
2022/05/28 03:01:14;;;;;;;37.95;8.57;;;;;;;8.10;86.12;102003.97;4938301;29;20036;-50
2022/05/28 03:03:39;;;;;;;39.67;9.07;;;;;;;8.03;85.96;102006.97;4938376;29;20465;-47
2022/05/28 03:06:05;;;;;;;35.42;8.85;;;;;;;7.96;86.47;102008.28;4938078;29;20023;-46
2022/05/28 03:08:30;;;;;;;40.00;9.57;;;;;;;7.98;86.98;102005.78;4937570;29;20027;-49
2022/05/28 03:10:55;;;;;;;40.78;9.75;;;;;;;7.95;87.37;102013.34;4938112;29;20024;-49
2022/05/28 03:13:21;;;;;;;36.25;9.85;;;;;;;7.91;87.07;102012.25;4938004;29;20023;-49
2022/05/28 03:15:46;;;;;;;33.47;9.38;;;;;;;7.82;86.93;102012.59;4937257;29;20046;-49
2022/05/28 03:18:13;;;;;;;39.67;10.57;;;;;;;7.82;87.57;102017.72;4937758;29;20476;-49
2022/05/28 03:20:38;;;;;;;41.35;10.13;;;;;;;7.84;88.37;102016.16;4937780;29;20554;-50
2022/05/28 03:23:04;;;;;;;30.80;9.63;;;;;;;7.82;88.58;102017.72;4936924;29;20032;-49
2022/05/28 03:25:29;;;;;;;35.72;9.40;;;;;;;7.81;88.11;102022.78;4937830;29;20028;-47
2022/05/28 03:27:54;;;;;;;34.30;8.60;;;;;;;7.78;88.18;102020.91;4938003;29;20427;-48
2022/05/28 03:30:19;;;;;;;32.67;10.00;;;;;;;7.75;88.15;102020.75;4937063;29;20032;-47
2022/05/28 03:32:45;;;;;;;39.95;9.40;;;;;;;7.75;88.75;102020.75;4937691;29;20031;-47
2022/05/28 03:35:10;;;;;;;40.42;9.77;;;;;;;7.71;88.30;102021.34;4937543;29;20428;-49
2022/05/28 03:37:35;;;;;;;35.50;8.85;;;;;;;7.65;88.43;102029.56;4936924;29;20035;-47
2022/05/28 03:40:02;;;;;;;36.63;9.82;;;;;;;7.64;88.34;102029.47;4937432;29;20408;-48
2022/05/28 03:42:27;;;;;;;34.67;10.32;;;;;;;7.54;88.16;102021.22;4937450;29;20449;-49
2022/05/28 03:44:53;;;;;;;39.92;9.77;;;;;;;7.53;89.20;102029.69;4936892;29;20102;-46
2022/05/28 03:47:18;;;;;;;41.08;9.80;;;;;;;7.38;88.32;102033.88;4937420;29;20039;-48
2022/05/28 03:49:44;;;;;;;33.17;9.88;;;;;;;7.29;88.65;102034.19;4937541;29;20035;-46
2022/05/28 03:52:11;;;;;;;26.50;9.75;;;;;;;7.23;89.49;102032.16;4936483;29;20032;-47
2022/05/28 03:54:43;;;;;;;36.15;10.32;;;;;;;7.22;90.43;102038.06;4937289;29;20103;-46
2022/05/28 03:57:13;;;;;;;39.33;11.77;;;;;;;7.21;90.96;102033.72;4937352;29;20028;-48
2022/05/28 03:59:39;;;;;;;46.03;11.45;;;;;;;7.20;90.86;102039.63;4936728;29;20031;-49
2022/05/28 04:02:04;;;;;;;41.47;10.70;;;;;;;7.19;91.53;102037.88;4936051;29;20383;-49
2022/05/28 04:04:30;;;;;;;35.47;10.98;;;;;;;7.25;92.16;102037.38;4936785;29;20392;-46
2022/05/28 04:06:58;;;;;;;45.30;10.93;;;;;;;7.27;92.70;102037.47;4937070;29;20035;-49
2022/05/28 04:09:23;;;;;;;33.63;11.10;;;;;;;7.32;92.76;102042.09;4936949;29;20372;-47
2022/05/28 04:11:49;;;;;;;31.88;9.93;;;;;;;7.33;92.66;102045.53;4936479;29;20023;-50
2022/05/28 04:14:14;;;;;;;32.25;10.20;;;;;;;7.32;92.40;102041.19;4937029;29;20024;-48
2022/05/28 04:16:39;;;;;;;44.72;10.95;;;;;;;7.35;93.24;102038.84;4937062;29;20392;-48
2022/05/28 04:19:04;;;;;;;38.55;10.15;;;;;;;7.45;94.06;102045.41;4935768;29;20044;-49
2022/05/28 04:21:30;;;;;;;49.80;11.00;;;;;;;7.49;94.27;102043.13;4936699;29;20396;-49
2022/05/28 04:23:55;;;;;;;33.50;10.45;;;;;;;7.58;94.67;102048.81;4936718;29;20036;-47
2022/05/28 04:26:20;;;;;;;46.42;10.27;;;;;;;7.61;94.47;102047.25;4935950;29;20480;-49
2022/05/28 04:28:46;;;;;;;38.60;9.15;;;;;;;7.65;94.38;102054.34;4936788;29;20068;-48
2022/05/28 04:31:11;;;;;;;32.15;9.05;;;;;;;7.75;95.00;102051.53;4936454;29;20036;-47
2022/05/28 04:33:36;;;;;;;53.50;10.02;;;;;;;7.86;95.31;102050.50;4935888;29;20074;-48
2022/05/28 04:36:02;;;;;;;35.30;8.88;;;;;;;7.88;94.86;102048.91;4936324;29;20032;-45
2022/05/28 04:38:28;;;;;;;45.28;9.40;;;;;;;7.99;95.64;102052.13;4936442;29;20079;-49
2022/05/28 04:40:53;;;;;;;50.47;9.52;;;;;;;8.05;95.50;102057.59;4935713;29;20054;-48
2022/05/28 04:43:18;;;;;;;37.67;8.23;;;;;;;8.16;95.14;102057.34;4936304;29;20044;-46
2022/05/28 04:45:45;;;;;;;42.35;8.55;;;;;;;8.23;95.41;102057.81;4936557;29;20392;-48
2022/05/28 04:48:10;;;;;;;45.55;8.55;;;;;;;8.27;95.47;102047.72;4935474;29;20055;-48
2022/05/28 04:50:35;;;;;;;39.25;7.38;;;;;;;8.35;95.88;102059.31;4936335;29;20062;-47
2022/05/28 04:53:01;;;;;;;46.10;8.38;;;;;;;8.44;96.45;102054.72;4936150;29;20051;-45
2022/05/28 04:55:26;;;;;;;43.10;6.72;;;;;;;8.54;96.38;102054.47;4935490;29;20042;-47
2022/05/28 04:57:53;;;;;;;40.20;6.82;;;;;;;8.64;96.20;102057.59;4936147;29;20424;-48
2022/05/28 05:00:21;;;;;;;31.98;6.65;;;;;;;8.72;96.60;102056.34;4935950;29;20035;-48
2022/05/28 05:02:47;;;;;;;39.10;7.15;;;;;;;8.83;95.76;102060.41;4935488;29;20039;-46
2022/05/28 05:05:12;;;;;;;38.40;5.57;;;;;;;8.95;95.67;102061.84;4935875;29;20035;-47
2022/05/28 05:07:37;;;;;;;33.67;5.55;;;;;;;9.06;95.11;102065.91;4935942;29;20119;-48
2022/05/28 05:10:03;;;;;;;29.70;5.57;;;;;;;9.16;94.60;102068.19;4935090;29;20043;-44
2022/05/28 05:12:29;;;;;;;29.33;5.25;;;;;;;9.23;94.16;102075.47;4935801;29;20016;-44
2022/05/28 05:14:54;;;;;;;32.42;5.50;;;;;;;9.32;93.37;102069.94;4935378;29;20034;-48
2022/05/28 05:17:20;;;;;;;32.83;4.75;;;;;;;9.45;92.39;102081.78;4935872;29;20038;-48
2022/05/28 05:19:45;;;;;;;30.13;4.25;;;;;;;9.56;92.43;102074.63;4935726;29;20054;-49
2022/05/28 05:22:10;;;;;;;26.60;3.75;;;;;;;9.66;90.36;102076.03;4934731;29;20032;-48
2022/05/28 05:24:36;;;;;;;25.95;4.25;;;;;;;9.75;89.96;102080.75;4935991;29;20039;-48
2022/05/28 05:27:02;;;;;;;32.53;3.88;;;;;;;9.84;88.01;102076.09;4935797;29;20024;-45
2022/05/28 05:29:28;;;;;;;29.10;4.18;;;;;;;9.93;87.94;102078.25;4935103;29;20027;-48
2022/05/28 05:31:53;;;;;;;23.83;3.58;;;;;;;10.02;87.55;102086.47;4935925;29;20475;-48
2022/05/28 05:34:18;;;;;;;30.48;3.40;;;;;;;10.10;85.34;102080.03;4935513;29;20056;-47
2022/05/28 05:36:44;;;;;;;25.92;4.05;;;;;;;10.18;84.62;102082.97;4934913;29;20036;-47
2022/05/28 05:39:09;;;;;;;22.88;3.08;;;;;;;10.25;84.62;102079.94;4935314;29;20027;-46
2022/05/28 05:41:38;;;;;;;24.98;3.30;;;;;;;10.32;83.71;102086.28;4935721;29;20036;-46
2022/05/28 05:44:04;;;;;;;21.08;2.95;;;;;;;10.39;83.87;102083.22;4934806;29;20052;-46
2022/05/28 05:46:29;;;;;;;24.05;3.45;;;;;;;10.44;82.41;102089.47;4935657;29;20118;-47
2022/05/28 05:48:54;;;;;;;15.77;3.22;;;;;;;10.49;82.96;102082.84;4935579;29;20031;-45
2022/05/28 05:51:19;;;;;;;21.98;3.10;;;;;;;10.56;82.13;102084.06;4934498;29;20051;-46
2022/05/28 05:53:45;;;;;;;22.60;2.42;;;;;;;10.61;81.64;102095.47;4935759;29;20032;-46
2022/05/28 05:56:11;;;;;;;15.60;2.90;;;;;;;10.65;80.27;102091.34;4935280;29;20080;-47
2022/05/28 05:58:36;;;;;;;20.40;2.70;;;;;;;10.69;80.32;102090.69;4934905;29;20075;-49
2022/05/28 06:01:03;;;;;;;19.33;2.78;;;;;;;10.73;79.48;102087.47;4935403;29;20031;-46
2022/05/28 06:03:29;;;;;;;13.85;2.55;;;;;;;10.78;79.93;102098.91;4935457;29;20063;-47
2022/05/28 06:06:03;;;;;;;22.10;3.13;;;;;;;10.83;79.53;102091.38;4934708;29;20067;-47
2022/05/28 06:08:29;;;;;;;17.95;2.75;;;;;;;10.85;77.14;102095.78;4935419;29;20420;-48
2022/05/28 06:10:54;;;;;;;20.80;2.70;;;;;;;10.90;76.71;102092.53;4935555;29;20126;-48
2022/05/28 06:13:20;;;;;;;24.48;2.92;;;;;;;10.96;76.02;102098.00;4934481;29;20059;-48
2022/05/28 06:15:45;;;;;;;17.23;2.60;;;;;;;10.97;75.10;102094.63;4935414;29;20028;-48
2022/05/28 06:18:15;;;;;;;19.95;2.75;;;;;;;11.02;74.99;102094.03;4934364;29;20052;-48
2022/05/28 06:20:41;;;;;;;18.63;3.10;;;;;;;11.07;75.78;102104.56;4935538;29;20060;-45
2022/05/28 06:23:07;;;;;;;15.23;2.97;;;;;;;11.15;74.85;102105.81;4934942;29;20592;-48
2022/05/28 06:25:32;;;;;;;20.45;2.30;;;;;;;11.24;74.51;102100.19;4937653;29;20042;-49
2022/05/28 06:27:58;;;;;;;16.27;2.50;;;;;;;11.36;75.44;102099.88;4938890;29;20196;-49
2022/05/28 06:30:24;;;;;;;20.13;2.55;;;;;;;11.41;73.38;102100.97;4938682;29;20043;-49
2022/05/28 06:32:49;;;;;;;18.13;2.38;;;;;;;11.46;73.22;102104.66;4938030;29;20507;-49
2022/05/28 06:35:15;;;;;;;18.77;2.42;;;;;;;11.53;72.09;102104.13;4938764;29;20481;-48
2022/05/28 06:37:40;;;;;;;18.63;2.65;;;;;;;11.59;71.30;102107.81;4938695;29;20036;-49
2022/05/28 06:40:07;;;;;;;16.90;2.70;;;;;;;11.64;72.83;102111.50;4937981;29;20055;-49
2022/05/28 06:42:32;;;;;;;25.98;2.90;;;;;;;11.67;69.07;102112.53;4938662;29;20036;-49
2022/05/28 06:44:58;;;;;;;19.42;3.05;;;;;;;11.68;67.25;102108.22;4938698;29;20175;-49
2022/05/28 06:47:23;;;;;;;14.98;2.35;;;;;;;11.75;65.13;102102.53;4937573;29;20031;-48
2022/05/28 06:51:01;;;;;;;16.65;2.67;;;;;;;11.83;65.39;102111.50;4938734;29;20028;-49
2022/05/28 06:52:33;;;;;;;18.52;2.40;;;;;;;11.85;66.25;102112.47;4938433;29;20083;-47
2022/05/28 06:54:59;;;;;;;20.20;2.67;;;;;;;11.83;67.18;102119.25;4937840;29;20118;-48
2022/05/28 06:57:24;;;;;;;17.88;2.67;;;;;;;11.90;67.57;102119.53;4938323;29;20087;-48
2022/05/28 06:59:49;;;;;;;16.90;2.40;;;;;;;11.88;66.90;102116.00;4938300;29;20036;-49
2022/05/28 07:02:14;;;;;;;14.73;3.05;;;;;;;11.87;67.38;102120.28;4937230;29;20075;-49
2022/05/28 07:04:40;;;;;;;16.73;3.15;;;;;;;11.99;66.90;102126.03;4938255;29;20074;-48
2022/05/28 07:07:05;;;;;;;20.35;3.20;;;;;;;12.10;65.10;102117.88;4938096;29;20471;-49
2022/05/28 07:09:31;;;;;;;20.38;2.83;;;;;;;12.08;63.92;102119.50;4937661;29;20030;-49
2022/05/28 07:11:56;;;;;;;26.15;2.88;;;;;;;12.05;64.95;102125.41;4938174;29;20073;-48
2022/05/28 07:14:22;;;;;;;23.42;3.13;;;;;;;11.93;63.94;102123.16;4937846;29;20061;-48
2022/05/28 07:16:47;;;;;;;21.80;3.40;;;;;;;11.81;65.10;102127.75;4937541;29;20043;-49
2022/05/28 07:19:12;;;;;;;20.55;3.05;;;;;;;11.70;65.28;102127.28;4937786;29;20122;-48
2022/05/28 07:21:37;;;;;;;13.18;2.97;;;;;;;11.56;66.11;102124.06;4937333;29;20090;-45
2022/05/28 07:24:03;;;;;;;14.15;2.75;;;;;;;11.44;67.63;102129.53;4937842;29;20042;-46
2022/05/28 07:26:28;;;;;;;14.88;2.85;;;;;;;11.46;65.44;102127.03;4937965;29;20037;-48
2022/05/28 07:28:55;;;;;;;15.23;2.55;;;;;;;11.59;66.05;102128.47;4937156;29;20484;-46
2022/05/28 07:31:21;;;;;;;20.83;3.95;;;;;;;11.64;64.58;102124.41;4937627;29;20123;-48
2022/05/28 07:33:47;;;;;;;14.88;2.35;;;;;;;11.65;64.26;102128.75;4938045;29;20118;-47
2022/05/28 07:36:16;;;;;;;19.40;2.80;;;;;;;11.60;64.87;102125.09;4936822;29;20032;-47
2022/05/28 07:38:42;;;;;;;15.90;2.42;;;;;;;11.64;64.45;102132.16;4937757;29;20027;-48
2022/05/28 07:41:11;;;;;;;21.48;3.00;;;;;;;11.75;65.35;102130.94;4937346;29;20039;-48
2022/05/28 07:43:37;;;;;;;10.25;2.13;;;;;;;11.90;61.60;102124.69;4936808;29;20488;-49
2022/05/28 07:46:09;;;;;;;10.23;2.33;;;;;;;11.97;59.60;102125.06;4937577;29;20456;-46
2022/05/28 07:48:34;;;;;;;14.35;2.53;;;;;;;12.04;61.51;102127.94;4937686;29;20038;-49
2022/05/28 07:50:59;;;;;;;17.55;2.33;;;;;;;12.16;60.41;102126.78;4936492;29;20031;-45
2022/05/28 07:53:24;;;;;;;13.48;2.35;;;;;;;12.17;60.69;102120.78;4937414;29;20419;-45
2022/05/28 07:55:49;;;;;;;13.23;2.05;;;;;;;12.17;61.11;102125.97;4937413;29;20031;-45
2022/05/28 07:58:16;;;;;;;16.70;2.70;;;;;;;12.18;61.70;102125.13;4936289;29;20027;-46
2022/05/28 08:00:47;;;;;;;15.93;2.40;;;;;;;12.14;59.92;102125.81;4937559;29;20062;-45
2022/05/28 08:03:14;;;;;;;23.83;3.20;;;;;;;12.24;60.13;102123.63;4937131;29;20036;-45
2022/05/28 08:05:42;;;;;;;18.48;2.72;;;;;;;12.47;60.04;102120.34;4936403;29;20031;-45
2022/05/28 08:08:08;;;;;;;23.40;3.05;;;;;;;12.92;59.86;102118.69;4936770;29;20024;-45
2022/05/28 08:10:34;;;;;;;13.10;2.67;;;;;;;13.30;59.67;102119.34;4937176;29;20027;-45
2022/05/28 08:13:12;;;;;;;14.68;2.80;;;;;;;13.45;59.74;102119.97;4936160;29;20028;-45
2022/05/28 08:15:41;;;;;;;15.52;3.38;;;;;;;13.34;56.34;102118.63;4937226;29;20051;-46
2022/05/28 08:18:06;;;;;;;13.52;2.97;;;;;;;13.13;55.21;102123.84;4935947;29;20491;-45
2022/05/28 08:23:18;;;;;;;20.83;3.20;;;;;;;12.81;56.34;102115.69;4936610;29;20082;-47
2022/05/28 08:25:45;;;;;;;11.57;2.65;;;;;;;12.68;57.92;102117.75;4936258;29;20035;-46
2022/05/28 08:28:12;;;;;;;19.48;2.72;;;;;;;12.63;58.37;102120.97;4936703;29;20032;-48
2022/05/28 08:30:38;;;;;;;16.52;2.30;;;;;;;12.43;58.33;102118.41;4936900;29;20122;-49
2022/05/28 08:33:04;;;;;;;14.50;2.80;;;;;;;12.50;58.27;102115.28;4935751;29;20020;-49
2022/05/28 08:35:30;;;;;;;18.80;2.95;;;;;;;12.78;59.65;102111.25;4936693;29;20066;-46
2022/05/28 08:37:55;;;;;;;13.90;2.55;;;;;;;13.12;58.20;102114.31;4936422;29;20460;-49
2022/05/28 08:40:23;;;;;;;17.27;2.35;;;;;;;13.33;55.87;102119.44;4935737;29;20031;-47
2022/05/28 08:42:48;;;;;;;23.70;3.08;;;;;;;13.83;58.26;102110.13;4936786;29;20031;-47
2022/05/28 08:45:15;;;;;;;12.13;2.70;;;;;;;14.29;54.63;102104.81;4936437;29;20036;-45
2022/05/28 08:47:45;;;;;;;16.98;2.85;;;;;;;14.77;53.56;102104.72;4935448;29;20039;-48
2022/05/28 08:50:11;;;;;;;15.00;2.45;;;;;;;14.93;52.72;102113.88;4936138;29;20031;-49
2022/05/28 08:53:02;;;;;;;14.38;2.75;;;;;;;14.98;51.79;102107.13;4936387;29;20127;-46
2022/05/28 08:55:30;;;;;;;17.17;2.83;;;;;;;15.11;51.79;102110.97;4936201;29;20500;-47
2022/05/28 08:58:05;;;;;;;;;;;;;;;15.22;51.07;102113.94;4936760;29;20032;-49
2022/05/28 09:00:41;;;;;;;13.63;2.97;;;;;;;14.90;52.36;102123.28;4935484;29;19963;-47
2022/05/28 09:03:13;;;;;;;23.13;2.60;;;;;;;14.77;53.78;102122.91;4935743;29;20503;-47
2022/05/28 09:05:47;;;;;;;19.42;3.22;;;;;;;14.79;53.03;102123.81;4936290;29;20035;-49
2022/05/28 09:08:14;;;;;;;19.27;2.95;;;;;;;14.79;52.18;102118.63;4935252;29;20028;-49
2022/05/28 09:10:49;;;;;;;15.07;3.63;;;;;;;14.71;52.87;102122.69;4936197;29;20071;-46
2022/05/28 09:13:38;;;;;;;16.58;2.67;;;;;;;14.90;55.16;102124.19;4935823;29;20035;-48
2022/05/28 09:16:06;;;;;;;19.50;2.42;;;;;;;14.87;51.98;102120.59;4935304;29;20057;-45
2022/05/28 09:18:37;;;;;;;17.42;2.75;;;;;;;14.77;52.82;102120.31;4935945;29;20043;-46
2022/05/28 09:21:05;;;;;;;11.85;2.08;;;;;;;14.78;49.88;102124.66;4935029;29;20024;-47
2022/05/28 09:23:43;;;;;;;16.30;2.28;;;;;;;14.84;48.11;102115.31;4935872;29;20439;-48
2022/05/28 09:26:09;;;;;;;9.10;2.08;;;;;;;14.92;47.46;102113.84;4935591;29;20055;-47
2022/05/28 09:28:53;;;;;;;14.50;2.40;;;;;;;15.14;49.70;102111.09;4935334;29;20036;-47
2022/05/28 09:32:16;;;;;;;13.82;2.53;;;;;;;15.41;49.33;102104.94;4935472;29;20579;-47
2022/05/28 09:35:09;;;;;;;19.80;3.03;;;;;;;15.86;47.51;102102.81;4910743;29;20436;-45
2022/05/28 09:38:01;;;;;;;14.68;2.70;;;;;;;15.87;46.38;102102.84;4935934;29;20024;-46
2022/05/28 09:40:33;;;;;;;11.52;2.30;;;;;;;15.94;44.26;102111.69;4935496;29;20031;-45
2022/05/28 09:43:14;;;;;;;11.98;2.10;;;;;;;16.19;45.31;102096.75;4934820;29;20479;-47
2022/05/28 09:45:59;;;;;;;13.20;2.28;;;;;;;16.56;46.08;102092.50;4935747;29;20035;-48
2022/05/28 09:48:27;;;;;;;9.68;2.35;;;;;;;16.95;45.72;102096.91;4935624;29;20020;-45
2022/05/28 09:50:53;;;;;;;26.33;2.90;;;;;;;16.95;45.76;102096.91;4934839;29;20107;-45
2022/05/28 09:56:36;;;;;;;13.10;2.47;;;;;;;16.42;46.30;102100.84;4934815;29;20046;-47
2022/05/28 09:59:16;;;;;;;19.77;3.15;;;;;;;16.57;46.01;102096.88;4936068;29;20076;-46
2022/05/28 10:01:52;;;;;;;15.05;2.83;;;;;;;16.87;46.08;102098.44;4939539;29;20059;-47
2022/05/28 10:04:30;;;;;;;12.45;2.30;;;;;;;17.32;43.57;102092.53;4938621;29;20036;-46
2022/05/28 10:06:56;;;;;;;;;;;;;;;17.75;44.21;102090.84;4939947;29;20098;-46
2022/05/28 10:09:31;;;;;;;14.48;2.20;;;;;;;18.49;43.64;102083.50;4938989;29;19922;-47
2022/05/28 10:12:02;;;;;;;16.25;2.55;;;;;;;18.50;41.72;102094.81;4938817;29;20038;-47
2022/05/28 10:14:31;;;;;;;18.42;2.20;;;;;;;17.84;41.67;102102.28;4939309;29;20039;-45
2022/05/28 10:16:59;;;;;;;9.70;1.95;;;;;;;17.01;40.41;102096.19;4939232;29;20099;-47
2022/05/28 10:19:30;;;;;;;12.68;1.95;;;;;;;16.36;41.92;102097.19;4937577;29;20099;-47
2022/05/28 10:22:00;;;;;;;6.68;2.00;;;;;;;17.21;43.00;102096.63;4937751;29;20039;-47
2022/05/28 10:24:28;;;;;;;7.53;1.75;;;;;;;18.32;38.54;102085.81;4936832;29;20392;-45
2022/05/28 10:26:58;;;;;;;15.15;2.30;;;;;;;19.50;36.14;102092.81;4938000;29;20034;-50
2022/05/28 10:29:30;;;;;;;11.48;1.73;;;;;;;20.51;34.43;102076.41;4937821;29;20030;-48
2022/05/28 10:31:59;;;;;;;7.63;1.90;;;;;;;21.53;32.17;102082.25;4937200;29;20031;-50
2022/05/28 10:34:32;;;;;;;10.30;1.88;;;;;;;22.09;31.11;102079.81;4937467;29;20476;-49
2022/05/28 10:37:16;;;;;;;14.95;2.45;;;;;;;21.54;33.19;102076.16;4937886;29;20036;-51
2022/05/28 10:39:43;;;;;;;13.15;2.20;;;;;;;21.20;32.85;102079.50;4937011;29;20028;-49
2022/05/28 10:42:13;;;;;;;12.25;2.40;;;;;;;22.09;34.83;102077.19;4937172;29;20387;-50
2022/05/28 10:44:41;;;;;;;18.88;2.40;;;;;;;21.91;31.65;102075.41;4937575;29;20463;-50
2022/05/28 10:47:27;;;;;;;14.85;3.08;;;;;;;21.95;34.60;102088.56;4936461;29;20032;-47
2022/05/28 10:50:19;;;;;;;12.15;2.50;;;;;;;21.25;33.89;102084.75;4937594;29;20035;-49
2022/05/28 10:53:12;;;;;;;17.15;2.63;;;;;;;21.69;32.48;102084.13;4936974;29;20359;-49
2022/05/28 10:56:13;;;;;;;13.77;2.42;;;;;;;22.24;31.43;102071.94;4937350;29;20028;-50
2022/05/28 10:59:11;;;;;;;20.15;2.53;;;;;;;21.27;34.33;102079.56;4937445;29;20028;-47
2022/05/28 11:01:44;;;;;;;19.70;2.85;;;;;;;19.89;32.54;102076.72;4936228;29;20039;-48
2022/05/28 11:04:49;;;;;;;14.27;2.03;;;;;;;19.28;36.00;102087.31;4937000;29;20428;-45
2022/05/28 11:07:27;;;;;;;11.02;2.70;;;;;;;18.64;37.21;102082.84;4935272;29;20047;-49
2022/05/28 11:10:09;;;;;;;12.15;1.85;;;;;;;19.32;36.06;102083.00;4936673;29;20028;-47
2022/05/28 11:12:53;;;;;;;12.63;2.15;;;;;;;20.48;33.41;102073.78;4937246;29;20032;-46
2022/05/28 11:15:53;;;;;;;11.30;2.03;;;;;;;21.57;31.64;102072.69;4936303;29;20039;-47
2022/05/28 11:18:55;;;;;;;15.00;2.28;;;;;;;21.93;32.31;102065.78;4902668;29;1000940;-46
2022/05/28 11:21:41;;;;;;;11.75;1.80;;;;;;;22.85;33.75;102064.91;4936878;29;20408;-47
2022/05/28 11:24:11;;;;;;;9.68;2.10;;;;;;;22.10;30.31;102064.06;4937782;29;20035;-45
2022/05/28 11:26:46;;;;;;;10.70;1.65;;;;;;;21.35;32.73;102067.34;4937944;29;20058;-46
2022/05/28 11:29:39;;;;;;;15.48;2.08;;;;;;;21.79;31.79;102063.13;4937090;29;20032;-46
2022/05/28 11:32:17;;;;;;;15.07;1.92;;;;;;;22.79;31.52;102062.31;4937734;29;20024;-48
2022/05/28 11:34:52;;;;;;;;;;;;;;;23.66;32.36;102057.63;4937529;29;20120;-48
2022/05/28 11:37:31;;;;;;;14.20;2.05;;;;;;;24.30;29.09;102058.09;4937672;29;20275;-46
2022/05/28 11:40:07;;;;;;;10.18;1.63;;;;;;;24.39;28.28;102054.47;4937982;29;20032;-47
2022/05/28 11:42:47;;;;;;;9.80;1.90;;;;;;;25.03;26.09;102052.13;4937256;29;20027;-47